sensor_id;sensor_type;location;lat;lon;timestamp;P1;durP1;ratioP1;P2;durP2;ratioP2
32876;SDS011;19226;51.600;8.034;2023-03-24T00:02:06;3.15;;;1.50;;
32876;SDS011;19226;51.600;8.034;2023-03-24T00:04:52;4.55;;;1.27;;
32876;SDS011;19226;51.600;8.034;2023-03-24T00:07:36;4.68;;;1.52;;
32876;SDS011;19226;51.600;8.034;2023-03-24T00:10:22;3.45;;;1.63;;
32876;SDS011;19226;51.600;8.034;2023-03-24T00:13:06;3.45;;;1.52;;
32876;SDS011;19226;51.600;8.034;2023-03-24T00:15:51;5.65;;;1.70;;
32876;SDS011;19226;51.600;8.034;2023-03-24T00:18:36;3.58;;;1.83;;
32876;SDS011;19226;51.600;8.034;2023-03-24T00:21:23;2.83;;;1.60;;
32876;SDS011;19226;51.600;8.034;2023-03-24T00:24:10;3.35;;;1.85;;
32876;SDS011;19226;51.600;8.034;2023-03-24T00:26:55;7.07;;;1.70;;
32876;SDS011;19226;51.600;8.034;2023-03-24T00:29:40;4.30;;;1.55;;
32876;SDS011;19226;51.600;8.034;2023-03-24T00:32:25;4.10;;;1.80;;
32876;SDS011;19226;51.600;8.034;2023-03-24T00:35:10;5.50;;;1.70;;
32876;SDS011;19226;51.600;8.034;2023-03-24T00:37:56;3.40;;;1.65;;
32876;SDS011;19226;51.600;8.034;2023-03-24T00:40:44;2.25;;;1.30;;
32876;SDS011;19226;51.600;8.034;2023-03-24T00:43:31;4.63;;;1.70;;
32876;SDS011;19226;51.600;8.034;2023-03-24T00:46:16;1.27;;;1.17;;
32876;SDS011;19226;51.600;8.034;2023-03-24T00:49:14;3.92;;;1.55;;
32876;SDS011;19226;51.600;8.034;2023-03-24T00:51:59;4.22;;;1.30;;
32876;SDS011;19226;51.600;8.034;2023-03-24T00:54:45;4.47;;;1.63;;
32876;SDS011;19226;51.600;8.034;2023-03-24T00:57:31;6.10;;;1.60;;
32876;SDS011;19226;51.600;8.034;2023-03-24T01:00:20;1.73;;;1.10;;
32876;SDS011;19226;51.600;8.034;2023-03-24T01:03:07;1.40;;;1.15;;
32876;SDS011;19226;51.600;8.034;2023-03-24T01:05:52;3.80;;;1.80;;
32876;SDS011;19226;51.600;8.034;2023-03-24T01:08:40;2.83;;;1.57;;
32876;SDS011;19226;51.600;8.034;2023-03-24T01:11:25;4.07;;;1.30;;
32876;SDS011;19226;51.600;8.034;2023-03-24T01:14:10;4.35;;;1.35;;
32876;SDS011;19226;51.600;8.034;2023-03-24T01:16:55;4.80;;;1.50;;
32876;SDS011;19226;51.600;8.034;2023-03-24T01:19:40;1.63;;;1.50;;
32876;SDS011;19226;51.600;8.034;2023-03-24T01:22:26;1.83;;;1.35;;
32876;SDS011;19226;51.600;8.034;2023-03-24T01:25:13;1.30;;;1.20;;
32876;SDS011;19226;51.600;8.034;2023-03-24T01:28:00;1.75;;;1.20;;
32876;SDS011;19226;51.600;8.034;2023-03-24T01:30:44;2.25;;;1.20;;
32876;SDS011;19226;51.600;8.034;2023-03-24T01:33:29;1.15;;;1.10;;
32876;SDS011;19226;51.600;8.034;2023-03-24T01:36:14;2.47;;;1.20;;
32876;SDS011;19226;51.600;8.034;2023-03-24T01:38:59;4.95;;;1.50;;
32876;SDS011;19226;51.600;8.034;2023-03-24T01:41:44;2.10;;;1.38;;
32876;SDS011;19226;51.600;8.034;2023-03-24T01:44:33;2.55;;;1.45;;
32876;SDS011;19226;51.600;8.034;2023-03-24T01:47:19;1.45;;;1.35;;
32876;SDS011;19226;51.600;8.034;2023-03-24T01:50:04;2.17;;;1.58;;
32876;SDS011;19226;51.600;8.034;2023-03-24T01:52:49;3.55;;;1.48;;
32876;SDS011;19226;51.600;8.034;2023-03-24T01:55:34;5.32;;;1.50;;
32876;SDS011;19226;51.600;8.034;2023-03-24T01:58:22;3.05;;;1.65;;
32876;SDS011;19226;51.600;8.034;2023-03-24T02:01:21;1.63;;;1.50;;
32876;SDS011;19226;51.600;8.034;2023-03-24T02:04:18;2.35;;;1.30;;
32876;SDS011;19226;51.600;8.034;2023-03-24T02:07:30;2.60;;;1.60;;
32876;SDS011;19226;51.600;8.034;2023-03-24T02:10:16;2.75;;;1.50;;
32876;SDS011;19226;51.600;8.034;2023-03-24T02:13:01;3.25;;;1.70;;
32876;SDS011;19226;51.600;8.034;2023-03-24T02:25:29;1.95;;;1.63;;
32876;SDS011;19226;51.600;8.034;2023-03-24T02:45:02;5.00;;;2.22;;
32876;SDS011;19226;51.600;8.034;2023-03-24T02:51:36;3.03;;;2.03;;
32876;SDS011;19226;51.600;8.034;2023-03-24T02:54:29;5.22;;;1.80;;
32876;SDS011;19226;51.600;8.034;2023-03-24T02:57:33;3.42;;;1.90;;
32876;SDS011;19226;51.600;8.034;2023-03-24T03:00:56;5.32;;;1.80;;
32876;SDS011;19226;51.600;8.034;2023-03-24T03:04:29;3.60;;;1.65;;
32876;SDS011;19226;51.600;8.034;2023-03-24T03:07:25;2.10;;;1.90;;
32876;SDS011;19226;51.600;8.034;2023-03-24T03:10:21;2.15;;;1.70;;
32876;SDS011;19226;51.600;8.034;2023-03-24T03:13:24;2.65;;;1.88;;
32876;SDS011;19226;51.600;8.034;2023-03-24T03:16:32;3.78;;;1.50;;
32876;SDS011;19226;51.600;8.034;2023-03-24T03:19:22;3.22;;;1.98;;
32876;SDS011;19226;51.600;8.034;2023-03-24T03:22:16;2.20;;;1.77;;
32876;SDS011;19226;51.600;8.034;2023-03-24T03:25:06;4.50;;;2.05;;
32876;SDS011;19226;51.600;8.034;2023-03-24T03:27:54;3.75;;;2.10;;
32876;SDS011;19226;51.600;8.034;2023-03-24T03:30:44;2.58;;;1.73;;
32876;SDS011;19226;51.600;8.034;2023-03-24T03:33:39;3.47;;;1.67;;
32876;SDS011;19226;51.600;8.034;2023-03-24T03:37:00;4.22;;;1.88;;
32876;SDS011;19226;51.600;8.034;2023-03-24T03:40:07;2.85;;;1.95;;
32876;SDS011;19226;51.600;8.034;2023-03-24T03:43:00;2.08;;;1.80;;
32876;SDS011;19226;51.600;8.034;2023-03-24T03:45:46;3.00;;;2.13;;
32876;SDS011;19226;51.600;8.034;2023-03-24T03:48:31;3.15;;;1.95;;
32876;SDS011;19226;51.600;8.034;2023-03-24T03:51:16;2.65;;;1.77;;
32876;SDS011;19226;51.600;8.034;2023-03-24T03:54:09;2.53;;;2.15;;
32876;SDS011;19226;51.600;8.034;2023-03-24T03:56:57;3.40;;;2.00;;
32876;SDS011;19226;51.600;8.034;2023-03-24T03:59:47;2.85;;;1.73;;
32876;SDS011;19226;51.600;8.034;2023-03-24T04:05:37;3.30;;;1.88;;
32876;SDS011;19226;51.600;8.034;2023-03-24T04:21:34;3.17;;;1.70;;
32876;SDS011;19226;51.600;8.034;2023-03-24T04:24:42;1.60;;;1.50;;
32876;SDS011;19226;51.600;8.034;2023-03-24T04:30:51;2.00;;;1.83;;
32876;SDS011;19226;51.600;8.034;2023-03-24T04:33:53;2.15;;;2.05;;
32876;SDS011;19226;51.600;8.034;2023-03-24T04:36:50;4.40;;;1.92;;
32876;SDS011;19226;51.600;8.034;2023-03-24T04:39:59;3.30;;;1.98;;
32876;SDS011;19226;51.600;8.034;2023-03-24T04:42:50;3.40;;;2.28;;
32876;SDS011;19226;51.600;8.034;2023-03-24T04:45:43;3.00;;;1.85;;
32876;SDS011;19226;51.600;8.034;2023-03-24T04:49:01;5.95;;;2.40;;
32876;SDS011;19226;51.600;8.034;2023-03-24T04:51:51;2.63;;;1.90;;
32876;SDS011;19226;51.600;8.034;2023-03-24T04:54:40;5.43;;;1.88;;
32876;SDS011;19226;51.600;8.034;2023-03-24T04:57:25;2.50;;;1.60;;
32876;SDS011;19226;51.600;8.034;2023-03-24T05:00:17;6.43;;;2.45;;
32876;SDS011;19226;51.600;8.034;2023-03-24T05:03:02;4.10;;;2.20;;
32876;SDS011;19226;51.600;8.034;2023-03-24T05:05:48;3.47;;;2.25;;
32876;SDS011;19226;51.600;8.034;2023-03-24T05:08:33;3.10;;;2.40;;
32876;SDS011;19226;51.600;8.034;2023-03-24T05:11:19;3.55;;;1.75;;
32876;SDS011;19226;51.600;8.034;2023-03-24T05:14:14;3.00;;;2.70;;
32876;SDS011;19226;51.600;8.034;2023-03-24T05:16:59;4.13;;;2.42;;
32876;SDS011;19226;51.600;8.034;2023-03-24T05:19:44;3.25;;;2.50;;
32876;SDS011;19226;51.600;8.034;2023-03-24T05:22:28;2.97;;;2.63;;
32876;SDS011;19226;51.600;8.034;2023-03-24T05:25:13;10.40;;;2.60;;
32876;SDS011;19226;51.600;8.034;2023-03-24T05:27:59;12.10;;;3.60;;
32876;SDS011;19226;51.600;8.034;2023-03-24T05:30:44;4.10;;;1.58;;
32876;SDS011;19226;51.600;8.034;2023-03-24T05:33:47;0.80;;;0.80;;
32876;SDS011;19226;51.600;8.034;2023-03-24T05:36:35;1.25;;;1.15;;
32876;SDS011;19226;51.600;8.034;2023-03-24T05:39:19;1.30;;;1.20;;
32876;SDS011;19226;51.600;8.034;2023-03-24T05:42:14;4.38;;;1.98;;
32876;SDS011;19226;51.600;8.034;2023-03-24T05:45:00;3.45;;;2.47;;
32876;SDS011;19226;51.600;8.034;2023-03-24T05:47:45;3.10;;;2.80;;
32876;SDS011;19226;51.600;8.034;2023-03-24T05:50:30;3.53;;;2.60;;
32876;SDS011;19226;51.600;8.034;2023-03-24T05:53:14;6.15;;;2.65;;
32876;SDS011;19226;51.600;8.034;2023-03-24T05:56:19;2.50;;;2.20;;
32876;SDS011;19226;51.600;8.034;2023-03-24T05:59:27;2.72;;;1.95;;
32876;SDS011;19226;51.600;8.034;2023-03-24T06:02:15;3.15;;;2.22;;
32876;SDS011;19226;51.600;8.034;2023-03-24T06:05:08;3.90;;;2.10;;
32876;SDS011;19226;51.600;8.034;2023-03-24T06:07:53;2.15;;;1.92;;
32876;SDS011;19226;51.600;8.034;2023-03-24T06:10:42;2.58;;;1.95;;
32876;SDS011;19226;51.600;8.034;2023-03-24T06:13:30;2.20;;;1.92;;
32876;SDS011;19226;51.600;8.034;2023-03-24T06:16:16;2.30;;;2.10;;
32876;SDS011;19226;51.600;8.034;2023-03-24T06:19:11;2.83;;;1.70;;
32876;SDS011;19226;51.600;8.034;2023-03-24T06:22:29;2.53;;;2.03;;
32876;SDS011;19226;51.600;8.034;2023-03-24T06:25:17;4.18;;;2.08;;
32876;SDS011;19226;51.600;8.034;2023-03-24T06:28:15;5.63;;;2.55;;
32876;SDS011;19226;51.600;8.034;2023-03-24T06:31:03;2.45;;;2.25;;
32876;SDS011;19226;51.600;8.034;2023-03-24T06:33:53;2.88;;;1.92;;
32876;SDS011;19226;51.600;8.034;2023-03-24T06:36:37;2.45;;;2.22;;
32876;SDS011;19226;51.600;8.034;2023-03-24T06:39:23;3.83;;;1.60;;
32876;SDS011;19226;51.600;8.034;2023-03-24T06:42:09;5.32;;;2.03;;
32876;SDS011;19226;51.600;8.034;2023-03-24T06:44:54;2.20;;;1.75;;
32876;SDS011;19226;51.600;8.034;2023-03-24T06:47:39;3.28;;;1.38;;
32876;SDS011;19226;51.600;8.034;2023-03-24T06:50:23;2.30;;;1.75;;
32876;SDS011;19226;51.600;8.034;2023-03-24T06:53:17;3.13;;;1.70;;
32876;SDS011;19226;51.600;8.034;2023-03-24T06:56:02;3.15;;;1.95;;
32876;SDS011;19226;51.600;8.034;2023-03-24T06:58:55;4.47;;;2.17;;
32876;SDS011;19226;51.600;8.034;2023-03-24T07:01:46;3.45;;;2.35;;
32876;SDS011;19226;51.600;8.034;2023-03-24T07:04:41;6.15;;;3.05;;
32876;SDS011;19226;51.600;8.034;2023-03-24T07:07:31;7.60;;;2.78;;
32876;SDS011;19226;51.600;8.034;2023-03-24T07:10:39;5.70;;;2.83;;
32876;SDS011;19226;51.600;8.034;2023-03-24T07:13:24;4.82;;;2.78;;
32876;SDS011;19226;51.600;8.034;2023-03-24T07:16:15;5.35;;;2.40;;
32876;SDS011;19226;51.600;8.034;2023-03-24T07:19:01;7.75;;;2.72;;
32876;SDS011;19226;51.600;8.034;2023-03-24T07:24:42;7.72;;;2.50;;
32876;SDS011;19226;51.600;8.034;2023-03-24T07:27:47;6.22;;;2.50;;
32876;SDS011;19226;51.600;8.034;2023-03-24T07:30:31;4.68;;;2.35;;
32876;SDS011;19226;51.600;8.034;2023-03-24T07:33:16;8.02;;;2.92;;
32876;SDS011;19226;51.600;8.034;2023-03-24T07:36:01;5.03;;;1.98;;
32876;SDS011;19226;51.600;8.034;2023-03-24T07:38:47;4.68;;;2.20;;
32876;SDS011;19226;51.600;8.034;2023-03-24T07:41:40;11.70;;;2.33;;
32876;SDS011;19226;51.600;8.034;2023-03-24T07:44:32;6.85;;;2.05;;
32876;SDS011;19226;51.600;8.034;2023-03-24T07:47:18;10.05;;;2.08;;
32876;SDS011;19226;51.600;8.034;2023-03-24T07:50:06;5.68;;;2.10;;
32876;SDS011;19226;51.600;8.034;2023-03-24T07:52:53;4.07;;;2.08;;
32876;SDS011;19226;51.600;8.034;2023-03-24T07:55:37;6.93;;;1.88;;
32876;SDS011;19226;51.600;8.034;2023-03-24T07:58:31;4.40;;;2.75;;
32876;SDS011;19226;51.600;8.034;2023-03-24T08:01:30;15.50;;;2.58;;
32876;SDS011;19226;51.600;8.034;2023-03-24T08:04:18;6.82;;;2.65;;
32876;SDS011;19226;51.600;8.034;2023-03-24T08:07:04;8.57;;;3.20;;
32876;SDS011;19226;51.600;8.034;2023-03-24T08:09:51;5.30;;;3.00;;
32876;SDS011;19226;51.600;8.034;2023-03-24T08:12:35;6.90;;;3.28;;
32876;SDS011;19226;51.600;8.034;2023-03-24T08:15:20;8.27;;;3.50;;
32876;SDS011;19226;51.600;8.034;2023-03-24T08:18:05;4.15;;;2.65;;
32876;SDS011;19226;51.600;8.034;2023-03-24T08:20:49;5.15;;;2.45;;
32876;SDS011;19226;51.600;8.034;2023-03-24T08:23:41;5.53;;;2.03;;
32876;SDS011;19226;51.600;8.034;2023-03-24T08:26:26;5.63;;;1.90;;
32876;SDS011;19226;51.600;8.034;2023-03-24T08:29:11;5.82;;;2.03;;
32876;SDS011;19226;51.600;8.034;2023-03-24T08:31:57;14.10;;;2.05;;
32876;SDS011;19226;51.600;8.034;2023-03-24T08:34:42;25.70;;;3.35;;
32876;SDS011;19226;51.600;8.034;2023-03-24T08:37:26;11.35;;;2.00;;
32876;SDS011;19226;51.600;8.034;2023-03-24T08:40:12;17.90;;;1.58;;
32876;SDS011;19226;51.600;8.034;2023-03-24T08:43:02;4.05;;;1.55;;
32876;SDS011;19226;51.600;8.034;2023-03-24T08:45:51;9.15;;;1.42;;
32876;SDS011;19226;51.600;8.034;2023-03-24T08:48:35;3.75;;;1.33;;
32876;SDS011;19226;51.600;8.034;2023-03-24T08:51:23;8.63;;;2.47;;
32876;SDS011;19226;51.600;8.034;2023-03-24T08:54:08;6.22;;;1.65;;
32876;SDS011;19226;51.600;8.034;2023-03-24T08:56:56;10.27;;;2.05;;
32876;SDS011;19226;51.600;8.034;2023-03-24T08:59:40;10.93;;;1.55;;
32876;SDS011;19226;51.600;8.034;2023-03-24T09:02:25;7.57;;;2.85;;
32876;SDS011;19226;51.600;8.034;2023-03-24T09:05:10;9.30;;;1.70;;
32876;SDS011;19226;51.600;8.034;2023-03-24T09:07:55;7.85;;;1.60;;
32876;SDS011;19226;51.600;8.034;2023-03-24T09:10:40;12.00;;;2.33;;
32876;SDS011;19226;51.600;8.034;2023-03-24T09:13:25;6.97;;;1.50;;
32876;SDS011;19226;51.600;8.034;2023-03-24T09:16:10;10.85;;;1.60;;
32876;SDS011;19226;51.600;8.034;2023-03-24T09:18:54;7.32;;;2.20;;
32876;SDS011;19226;51.600;8.034;2023-03-24T09:21:39;7.00;;;1.50;;
32876;SDS011;19226;51.600;8.034;2023-03-24T09:24:25;10.55;;;1.98;;
32876;SDS011;19226;51.600;8.034;2023-03-24T09:27:09;6.13;;;1.50;;
32876;SDS011;19226;51.600;8.034;2023-03-24T09:29:54;8.82;;;1.77;;
32876;SDS011;19226;51.600;8.034;2023-03-24T09:32:39;4.18;;;1.60;;
32876;SDS011;19226;51.600;8.034;2023-03-24T09:35:24;12.73;;;1.77;;
32876;SDS011;19226;51.600;8.034;2023-03-24T09:38:10;13.00;;;1.85;;
32876;SDS011;19226;51.600;8.034;2023-03-24T09:40:58;7.38;;;1.45;;
32876;SDS011;19226;51.600;8.034;2023-03-24T09:43:47;7.03;;;1.67;;
32876;SDS011;19226;51.600;8.034;2023-03-24T09:47:09;7.70;;;1.92;;
32876;SDS011;19226;51.600;8.034;2023-03-24T09:50:26;8.90;;;1.33;;
32876;SDS011;19226;51.600;8.034;2023-03-24T09:56:28;8.35;;;1.65;;
32876;SDS011;19226;51.600;8.034;2023-03-24T10:01:58;8.20;;;1.52;;
32876;SDS011;19226;51.600;8.034;2023-03-24T10:04:43;8.27;;;1.65;;
32876;SDS011;19226;51.600;8.034;2023-03-24T10:07:31;10.55;;;2.10;;
32876;SDS011;19226;51.600;8.034;2023-03-24T10:10:47;12.55;;;2.33;;
32876;SDS011;19226;51.600;8.034;2023-03-24T10:20:04;7.43;;;1.88;;
32876;SDS011;19226;51.600;8.034;2023-03-24T10:29:34;7.72;;;2.30;;
32876;SDS011;19226;51.600;8.034;2023-03-24T10:32:25;10.30;;;2.10;;
32876;SDS011;19226;51.600;8.034;2023-03-24T10:35:28;13.50;;;2.33;;
32876;SDS011;19226;51.600;8.034;2023-03-24T10:38:17;5.88;;;2.13;;
32876;SDS011;19226;51.600;8.034;2023-03-24T10:41:04;8.20;;;2.08;;
32876;SDS011;19226;51.600;8.034;2023-03-24T10:43:52;9.48;;;2.10;;
32876;SDS011;19226;51.600;8.034;2023-03-24T10:46:42;10.68;;;2.63;;
32876;SDS011;19226;51.600;8.034;2023-03-24T10:49:29;13.38;;;2.63;;
32876;SDS011;19226;51.600;8.034;2023-03-24T10:52:14;5.63;;;2.10;;
32876;SDS011;19226;51.600;8.034;2023-03-24T10:55:02;8.27;;;2.60;;
32876;SDS011;19226;51.600;8.034;2023-03-24T10:57:49;10.38;;;1.95;;
32876;SDS011;19226;51.600;8.034;2023-03-24T11:00:38;10.52;;;2.88;;
32876;SDS011;19226;51.600;8.034;2023-03-24T11:03:30;7.68;;;2.17;;
32876;SDS011;19226;51.600;8.034;2023-03-24T11:06:19;11.40;;;2.47;;
32876;SDS011;19226;51.600;8.034;2023-03-24T11:09:22;8.77;;;1.98;;
32876;SDS011;19226;51.600;8.034;2023-03-24T11:12:24;16.30;;;2.85;;
32876;SDS011;19226;51.600;8.034;2023-03-24T11:15:15;11.18;;;2.13;;
32876;SDS011;19226;51.600;8.034;2023-03-24T11:20:56;5.53;;;2.25;;
32876;SDS011;19226;51.600;8.034;2023-03-24T11:23:49;7.80;;;1.83;;
32876;SDS011;19226;51.600;8.034;2023-03-24T11:26:38;7.45;;;2.15;;
32876;SDS011;19226;51.600;8.034;2023-03-24T11:29:24;6.25;;;1.67;;
32876;SDS011;19226;51.600;8.034;2023-03-24T11:32:12;10.10;;;2.00;;
32876;SDS011;19226;51.600;8.034;2023-03-24T11:35:06;6.10;;;1.77;;
32876;SDS011;19226;51.600;8.034;2023-03-24T11:38:02;7.60;;;2.10;;
32876;SDS011;19226;51.600;8.034;2023-03-24T11:40:55;9.82;;;2.28;;
32876;SDS011;19226;51.600;8.034;2023-03-24T11:43:47;8.77;;;1.63;;
32876;SDS011;19226;51.600;8.034;2023-03-24T11:46:31;11.35;;;1.77;;
32876;SDS011;19226;51.600;8.034;2023-03-24T11:49:18;5.47;;;1.67;;
32876;SDS011;19226;51.600;8.034;2023-03-24T11:52:06;7.10;;;2.10;;
32876;SDS011;19226;51.600;8.034;2023-03-24T11:55:05;7.65;;;1.40;;
32876;SDS011;19226;51.600;8.034;2023-03-24T11:58:14;6.77;;;1.47;;
32876;SDS011;19226;51.600;8.034;2023-03-24T12:01:05;11.32;;;1.77;;
32876;SDS011;19226;51.600;8.034;2023-03-24T12:13:55;5.22;;;1.65;;
32876;SDS011;19226;51.600;8.034;2023-03-24T12:16:52;5.60;;;1.20;;
32876;SDS011;19226;51.600;8.034;2023-03-24T12:38:27;5.43;;;1.67;;
32876;SDS011;19226;51.600;8.034;2023-03-24T12:41:36;10.65;;;2.08;;
32876;SDS011;19226;51.600;8.034;2023-03-24T12:57:17;8.38;;;1.75;;
32876;SDS011;19226;51.600;8.034;2023-03-24T13:00:10;8.35;;;1.60;;
32876;SDS011;19226;51.600;8.034;2023-03-24T13:03:03;8.05;;;1.90;;
32876;SDS011;19226;51.600;8.034;2023-03-24T13:05:54;7.13;;;2.00;;
32876;SDS011;19226;51.600;8.034;2023-03-24T13:08:43;10.35;;;2.28;;
32876;SDS011;19226;51.600;8.034;2023-03-24T13:11:57;11.45;;;2.05;;
32876;SDS011;19226;51.600;8.034;2023-03-24T13:14:48;11.52;;;2.80;;
32876;SDS011;19226;51.600;8.034;2023-03-24T13:17:54;23.40;;;3.30;;
32876;SDS011;19226;51.600;8.034;2023-03-24T13:20:59;8.25;;;1.27;;
32876;SDS011;19226;51.600;8.034;2023-03-24T13:32:51;6.47;;;1.40;;
32876;SDS011;19226;51.600;8.034;2023-03-24T13:36:27;8.68;;;1.42;;
32876;SDS011;19226;51.600;8.034;2023-03-24T13:38:50;6.68;;;1.88;;
32876;SDS011;19226;51.600;8.034;2023-03-24T13:41:37;4.88;;;1.27;;
32876;SDS011;19226;51.600;8.034;2023-03-24T13:44:23;2.85;;;1.23;;
32876;SDS011;19226;51.600;8.034;2023-03-24T13:47:14;9.25;;;2.30;;
32876;SDS011;19226;51.600;8.034;2023-03-24T13:50:02;9.27;;;1.38;;
32876;SDS011;19226;51.600;8.034;2023-03-24T13:52:49;3.58;;;1.00;;
32876;SDS011;19226;51.600;8.034;2023-03-24T13:55:36;9.77;;;1.30;;
32876;SDS011;19226;51.600;8.034;2023-03-24T13:58:23;7.30;;;1.50;;
32876;SDS011;19226;51.600;8.034;2023-03-24T14:04:19;13.10;;;2.10;;
32876;SDS011;19226;51.600;8.034;2023-03-24T14:07:28;5.63;;;1.50;;
32876;SDS011;19226;51.600;8.034;2023-03-24T14:15:57;7.38;;;1.33;;
32876;SDS011;19226;51.600;8.034;2023-03-24T14:18:42;5.07;;;1.13;;
32876;SDS011;19226;51.600;8.034;2023-03-24T14:21:29;3.63;;;0.93;;
32876;SDS011;19226;51.600;8.034;2023-03-24T14:24:29;7.50;;;1.35;;
32876;SDS011;19226;51.600;8.034;2023-03-24T14:27:35;13.50;;;1.90;;
32876;SDS011;19226;51.600;8.034;2023-03-24T14:30:27;9.52;;;1.33;;
32876;SDS011;19226;51.600;8.034;2023-03-24T14:33:22;6.50;;;1.67;;
32876;SDS011;19226;51.600;8.034;2023-03-24T14:36:09;5.13;;;1.35;;
32876;SDS011;19226;51.600;8.034;2023-03-24T14:48:30;4.53;;;1.20;;
32876;SDS011;19226;51.600;8.034;2023-03-24T14:51:34;4.40;;;0.82;;
32876;SDS011;19226;51.600;8.034;2023-03-24T14:54:27;8.77;;;1.27;;
32876;SDS011;19226;51.600;8.034;2023-03-24T14:57:28;7.20;;;1.23;;
32876;SDS011;19226;51.600;8.034;2023-03-24T15:06:23;6.35;;;1.25;;
32876;SDS011;19226;51.600;8.034;2023-03-24T15:09:08;3.60;;;1.05;;
32876;SDS011;19226;51.600;8.034;2023-03-24T15:11:58;4.15;;;1.13;;
32876;SDS011;19226;51.600;8.034;2023-03-24T15:14:43;4.18;;;0.98;;
32876;SDS011;19226;51.600;8.034;2023-03-24T15:17:28;9.70;;;1.17;;
32876;SDS011;19226;51.600;8.034;2023-03-24T15:20:22;2.38;;;0.80;;
32876;SDS011;19226;51.600;8.034;2023-03-24T15:23:07;10.25;;;2.00;;
32876;SDS011;19226;51.600;8.034;2023-03-24T15:26:09;8.07;;;1.30;;
32876;SDS011;19226;51.600;8.034;2023-03-24T15:28:59;6.45;;;1.33;;
32876;SDS011;19226;51.600;8.034;2023-03-24T15:31:48;5.53;;;0.98;;
32876;SDS011;19226;51.600;8.034;2023-03-24T15:37:20;7.10;;;1.10;;
32876;SDS011;19226;51.600;8.034;2023-03-24T15:43:18;2.67;;;0.80;;
32876;SDS011;19226;51.600;8.034;2023-03-24T15:46:03;8.52;;;0.98;;
32876;SDS011;19226;51.600;8.034;2023-03-24T15:48:49;2.03;;;1.08;;
32876;SDS011;19226;51.600;8.034;2023-03-24T15:51:51;16.17;;;1.05;;
32876;SDS011;19226;51.600;8.034;2023-03-24T15:54:45;3.10;;;1.00;;
32876;SDS011;19226;51.600;8.034;2023-03-24T15:57:36;6.13;;;1.02;;
32876;SDS011;19226;51.600;8.034;2023-03-24T16:00:27;6.68;;;1.10;;
32876;SDS011;19226;51.600;8.034;2023-03-24T16:03:20;5.03;;;1.30;;
32876;SDS011;19226;51.600;8.034;2023-03-24T16:06:12;4.55;;;1.08;;
32876;SDS011;19226;51.600;8.034;2023-03-24T16:11:52;6.03;;;1.42;;
32876;SDS011;19226;51.600;8.034;2023-03-24T16:14:36;3.92;;;1.02;;
32876;SDS011;19226;51.600;8.034;2023-03-24T16:17:21;4.43;;;1.33;;
32876;SDS011;19226;51.600;8.034;2023-03-24T16:20:08;4.35;;;1.70;;
32876;SDS011;19226;51.600;8.034;2023-03-24T16:23:02;9.20;;;1.88;;
32876;SDS011;19226;51.600;8.034;2023-03-24T16:25:47;12.15;;;4.40;;
32876;SDS011;19226;51.600;8.034;2023-03-24T16:28:31;6.28;;;1.95;;
32876;SDS011;19226;51.600;8.034;2023-03-24T16:34:13;16.40;;;4.93;;
32876;SDS011;19226;51.600;8.034;2023-03-24T16:36:59;31.50;;;11.77;;
32876;SDS011;19226;51.600;8.034;2023-03-24T16:39:45;31.45;;;11.98;;
32876;SDS011;19226;51.600;8.034;2023-03-24T16:42:30;22.55;;;8.60;;
32876;SDS011;19226;51.600;8.034;2023-03-24T16:45:14;34.50;;;11.57;;
32876;SDS011;19226;51.600;8.034;2023-03-24T16:47:59;50.22;;;17.30;;
32876;SDS011;19226;51.600;8.034;2023-03-24T16:50:48;22.85;;;7.28;;
32876;SDS011;19226;51.600;8.034;2023-03-24T16:53:34;6.80;;;1.85;;
32876;SDS011;19226;51.600;8.034;2023-03-24T16:56:19;3.28;;;1.48;;
32876;SDS011;19226;51.600;8.034;2023-03-24T16:59:05;5.10;;;1.63;;
32876;SDS011;19226;51.600;8.034;2023-03-24T17:01:51;6.13;;;1.83;;
32876;SDS011;19226;51.600;8.034;2023-03-24T17:04:35;11.65;;;3.97;;
32876;SDS011;19226;51.600;8.034;2023-03-24T17:07:20;9.52;;;2.17;;
32876;SDS011;19226;51.600;8.034;2023-03-24T17:10:05;8.50;;;2.38;;
32876;SDS011;19226;51.600;8.034;2023-03-24T17:12:51;7.15;;;1.48;;
32876;SDS011;19226;51.600;8.034;2023-03-24T17:15:37;6.18;;;0.98;;
32876;SDS011;19226;51.600;8.034;2023-03-24T17:18:22;0.50;;;0.40;;
32876;SDS011;19226;51.600;8.034;2023-03-24T17:21:13;1.13;;;0.50;;
32876;SDS011;19226;51.600;8.034;2023-03-24T17:24:00;2.72;;;0.40;;
32876;SDS011;19226;51.600;8.034;2023-03-24T17:26:45;1.63;;;0.93;;
32876;SDS011;19226;51.600;8.034;2023-03-24T17:29:30;1.48;;;0.70;;
32876;SDS011;19226;51.600;8.034;2023-03-24T17:32:14;0.85;;;0.55;;
32876;SDS011;19226;51.600;8.034;2023-03-24T17:34:59;4.72;;;0.88;;
32876;SDS011;19226;51.600;8.034;2023-03-24T17:37:45;6.13;;;0.50;;
32876;SDS011;19226;51.600;8.034;2023-03-24T17:40:30;2.95;;;0.50;;
32876;SDS011;19226;51.600;8.034;2023-03-24T17:43:15;1.83;;;1.00;;
32876;SDS011;19226;51.600;8.034;2023-03-24T17:46:00;5.07;;;1.55;;
32876;SDS011;19226;51.600;8.034;2023-03-24T17:48:45;4.65;;;1.13;;
32876;SDS011;19226;51.600;8.034;2023-03-24T17:51:30;2.92;;;0.93;;
32876;SDS011;19226;51.600;8.034;2023-03-24T17:54:14;1.98;;;0.40;;
32876;SDS011;19226;51.600;8.034;2023-03-24T17:56:59;4.57;;;1.17;;
32876;SDS011;19226;51.600;8.034;2023-03-24T17:59:44;4.40;;;0.93;;
32876;SDS011;19226;51.600;8.034;2023-03-24T18:02:28;2.40;;;1.05;;
32876;SDS011;19226;51.600;8.034;2023-03-24T18:05:12;6.45;;;1.30;;
32876;SDS011;19226;51.600;8.034;2023-03-24T18:07:58;1.42;;;1.02;;
32876;SDS011;19226;51.600;8.034;2023-03-24T18:10:43;3.08;;;0.98;;
32876;SDS011;19226;51.600;8.034;2023-03-24T18:13:27;7.43;;;1.30;;
32876;SDS011;19226;51.600;8.034;2023-03-24T18:16:12;1.35;;;1.10;;
32876;SDS011;19226;51.600;8.034;2023-03-24T18:18:59;1.17;;;0.95;;
32876;SDS011;19226;51.600;8.034;2023-03-24T18:21:44;5.00;;;1.52;;
32876;SDS011;19226;51.600;8.034;2023-03-24T18:24:29;2.25;;;1.10;;
32876;SDS011;19226;51.600;8.034;2023-03-24T18:27:13;3.50;;;1.45;;
32876;SDS011;19226;51.600;8.034;2023-03-24T18:29:58;3.08;;;1.10;;
32876;SDS011;19226;51.600;8.034;2023-03-24T18:32:42;1.10;;;0.80;;
32876;SDS011;19226;51.600;8.034;2023-03-24T18:35:27;3.08;;;0.93;;
32876;SDS011;19226;51.600;8.034;2023-03-24T18:38:12;3.03;;;0.93;;
32876;SDS011;19226;51.600;8.034;2023-03-24T18:43:43;6.35;;;0.98;;
32876;SDS011;19226;51.600;8.034;2023-03-24T18:46:30;4.00;;;1.20;;
32876;SDS011;19226;51.600;8.034;2023-03-24T18:49:14;4.53;;;1.60;;
32876;SDS011;19226;51.600;8.034;2023-03-24T18:51:59;5.80;;;2.58;;
32876;SDS011;19226;51.600;8.034;2023-03-24T18:54:44;1.80;;;0.88;;
32876;SDS011;19226;51.600;8.034;2023-03-24T18:57:31;2.72;;;1.15;;
32876;SDS011;19226;51.600;8.034;2023-03-24T19:00:16;2.67;;;1.70;;
32876;SDS011;19226;51.600;8.034;2023-03-24T19:03:02;1.30;;;0.82;;
32876;SDS011;19226;51.600;8.034;2023-03-24T19:05:47;3.72;;;1.27;;
32876;SDS011;19226;51.600;8.034;2023-03-24T19:08:33;2.80;;;0.90;;
32876;SDS011;19226;51.600;8.034;2023-03-24T19:11:20;1.08;;;0.80;;
32876;SDS011;19226;51.600;8.034;2023-03-24T19:14:05;1.33;;;0.95;;
32876;SDS011;19226;51.600;8.034;2023-03-24T19:16:49;1.50;;;0.90;;
32876;SDS011;19226;51.600;8.034;2023-03-24T19:19:34;4.40;;;1.13;;
32876;SDS011;19226;51.600;8.034;2023-03-24T19:22:18;1.73;;;1.20;;
32876;SDS011;19226;51.600;8.034;2023-03-24T19:25:04;2.88;;;0.90;;
32876;SDS011;19226;51.600;8.034;2023-03-24T19:27:51;2.05;;;0.85;;
32876;SDS011;19226;51.600;8.034;2023-03-24T19:30:36;3.30;;;1.00;;
32876;SDS011;19226;51.600;8.034;2023-03-24T19:33:21;7.63;;;1.15;;
32876;SDS011;19226;51.600;8.034;2023-03-24T19:36:06;4.10;;;1.42;;
32876;SDS011;19226;51.600;8.034;2023-03-24T19:38:52;3.90;;;1.10;;
32876;SDS011;19226;51.600;8.034;2023-03-24T19:41:36;5.55;;;0.75;;
32876;SDS011;19226;51.600;8.034;2023-03-24T19:44:21;4.78;;;2.40;;